Time;durP1;ratioP1;P1;durP2;ratioP2;P2;SDS_P1;SDS_P2;PMS_P1;PMS_P2;Temp;Humidity;BMP_temperature;BMP_pressure;BME280_temperature;BME280_humidity;BME280_pressure;Samples;Min_cycle;Max_cycle;Signal;HPM_P1;HPM_P2
2023/07/02 00:00:12;;;;;;;12.40;9.60;;;20.30;99.90;;;;;;4951605;29;20781;-81
2023/07/02 00:02:39;;;;;;;9.23;8.23;;;20.40;99.90;;;;;;4949828;29;20425;-81
2023/07/02 00:05:07;;;;;;;9.90;8.97;;;20.40;99.90;;;;;;4952163;29;20540;-82
2023/07/02 00:07:36;;;;;;;9.90;8.90;;;20.40;99.90;;;;;;4947727;29;20456;-83
2023/07/02 00:10:04;;;;;;;10.97;9.23;;;20.10;99.90;;;;;;4945063;29;20486;-83
2023/07/02 00:12:32;;;;;;;9.80;8.80;;;20.10;99.90;;;;;;4949043;28;20653;-81
2023/07/02 00:15:00;;;;;;;9.83;8.83;;;19.90;99.90;;;;;;4943663;29;20548;-82
2023/07/02 00:17:28;;;;;;;9.20;8.40;;;19.80;99.90;;;;;;4946040;28;20956;-85
2023/07/02 00:19:55;;;;;;;9.60;8.77;;;19.60;99.90;;;;;;4947472;29;20482;-83
2023/07/02 00:22:22;;;;;;;8.60;7.80;;;19.40;99.90;;;;;;4951875;28;20445;-81
2023/07/02 00:24:51;;;;;;;8.57;7.77;;;19.40;99.90;;;;;;4941387;28;20663;-82
2023/07/02 00:27:18;;;;;;;11.60;8.37;;;19.60;99.90;;;;;;4941073;29;20644;-83
2023/07/02 00:29:45;;;;;;;10.57;7.40;;;19.50;99.90;;;;;;4949593;29;20458;-81
2023/07/02 00:32:13;;;;;;;10.80;7.73;;;19.60;99.90;;;;;;4949322;29;20442;-87
2023/07/02 00:34:39;;;;;;;14.23;7.63;;;19.60;99.90;;;;;;4941179;29;20476;-83
2023/07/02 00:37:07;;;;;;;7.30;6.70;;;19.50;99.90;;;;;;4934128;29;20458;-81
2023/07/02 00:39:35;;;;;;;10.70;6.33;;;19.50;99.90;;;;;;4947818;29;20464;-81
2023/07/02 00:42:05;;;;;;;7.20;6.53;;;19.50;99.90;;;;;;4939445;29;20526;-83
2023/07/02 00:44:40;;;;;;;6.43;5.83;;;19.40;99.90;;;;;;4954212;29;20492;-85
2023/07/02 00:47:08;;;;;;;7.90;5.60;;;19.40;99.90;;;;;;4947233;29;21013;-84
2023/07/02 00:49:36;;;;;;;5.00;4.57;;;19.40;99.90;;;;;;4966746;28;21036;-87
2023/07/02 00:52:04;;;;;;;10.03;5.30;;;19.50;99.90;;;;;;4955808;28;20499;-90
2023/07/02 00:54:31;;;;;;;5.43;4.27;;;19.50;99.90;;;;;;4956546;28;20449;-84
2023/07/02 00:57:03;;;;;;;10.23;5.20;;;19.50;99.90;;;;;;4948935;28;20460;-81
2023/07/02 00:59:33;;;;;;;5.10;4.10;;;19.50;99.90;;;;;;4948938;29;20497;-84
2023/07/02 01:02:01;;;;;;;4.20;3.80;;;19.50;99.90;;;;;;4951068;28;20446;-90
2023/07/02 01:04:28;;;;;;;4.73;3.83;;;19.60;99.90;;;;;;4957182;29;20815;-85
2023/07/02 01:06:58;;;;;;;4.30;3.80;;;19.40;99.90;;;;;;4951483;28;20469;-82
2023/07/02 01:09:26;;;;;;;4.90;4.40;;;19.40;99.90;;;;;;4951281;29;20417;-81
2023/07/02 01:11:59;;;;;;;3.40;3.20;;;19.50;99.90;;;;;;4943564;29;20706;-86
2023/07/02 01:14:28;;;;;;;4.07;3.77;;;19.40;99.90;;;;;;4940285;29;20429;-86
2023/07/02 01:16:57;;;;;;;4.13;3.83;;;19.40;99.90;;;;;;4943517;29;20459;-81
2023/07/02 01:19:41;;;;;;;8.13;4.47;;;19.40;99.90;;;;;;4947923;29;20505;-85
2023/07/02 01:22:09;;;;;;;3.97;3.57;;;19.40;99.90;;;;;;4946893;29;20447;-85
2023/07/02 01:24:38;;;;;;;3.20;3.00;;;19.40;99.90;;;;;;4949848;29;20435;-83
2023/07/02 01:27:10;;;;;;;3.93;3.63;;;19.50;99.90;;;;;;4966654;29;20464;-83
2023/07/02 01:29:37;;;;;;;4.83;3.17;;;19.50;99.90;;;;;;4942164;29;20433;-86
2023/07/02 01:32:08;;;;;;;3.83;3.33;;;19.50;99.90;;;;;;4949632;29;20433;-84
2023/07/02 01:34:35;;;;;;;3.73;3.30;;;19.40;99.90;;;;;;4951827;29;20465;-82
2023/07/02 01:37:03;;;;;;;3.77;3.20;;;19.50;99.90;;;;;;4958673;28;20423;-86
2023/07/02 01:39:30;;;;;;;3.87;3.50;;;19.50;99.90;;;;;;4953838;29;20425;-81
2023/07/02 01:42:09;;;;;;;3.47;3.17;;;19.20;99.90;;;;;;4959209;29;20536;-89
2023/07/02 01:44:37;;;;;;;4.40;3.47;;;19.40;99.90;;;;;;4937611;29;20432;-85
2023/07/02 01:47:05;;;;;;;3.30;3.00;;;19.40;99.90;;;;;;4951662;28;20738;-87
2023/07/02 01:49:33;;;;;;;3.00;2.80;;;19.30;99.90;;;;;;4952054;28;20454;-87
2023/07/02 01:52:00;;;;;;;3.30;3.00;;;19.50;99.90;;;;;;4952381;29;20469;-87
2023/07/02 01:54:28;;;;;;;3.50;2.87;;;19.30;99.90;;;;;;4946728;29;20466;-85
2023/07/02 01:56:57;;;;;;;3.93;2.80;;;19.20;99.90;;;;;;4953393;29;20441;-80
2023/07/02 01:59:24;;;;;;;3.03;2.80;;;19.10;99.90;;;;;;4947593;28;20722;-82
2023/07/02 02:01:52;;;;;;;3.20;2.90;;;19.10;99.90;;;;;;4961571;29;20673;-83
2023/07/02 02:04:19;;;;;;;4.20;3.00;;;19.10;99.90;;;;;;4951816;28;20825;-85
2023/07/02 02:06:46;;;;;;;2.67;2.50;;;19.20;99.90;;;;;;4952738;29;20485;-85
2023/07/02 02:09:13;;;;;;;3.00;2.80;;;19.10;99.90;;;;;;4963507;28;20507;-83
2023/07/02 02:11:43;;;;;;;3.17;2.97;;;19.10;99.90;;;;;;4944448;29;20453;-87
2023/07/02 02:14:14;;;;;;;2.83;2.63;;;19.10;99.90;;;;;;4953256;29;20481;-81
2023/07/02 02:16:45;;;;;;;3.20;2.90;;;19.20;99.90;;;;;;4948112;28;20506;-83
2023/07/02 02:19:14;;;;;;;3.43;3.07;;;19.20;99.90;;;;;;4944428;29;20459;-82
2023/07/02 02:21:42;;;;;;;4.10;2.50;;;19.10;99.90;;;;;;4955021;28;20477;-85
2023/07/02 02:24:15;;;;;;;3.20;2.47;;;19.10;99.90;;;;;;4949083;29;20625;-82
2023/07/02 02:26:42;;;;;;;2.83;2.63;;;19.10;99.90;;;;;;4946011;28;20442;-81
2023/07/02 02:29:09;;;;;;;2.53;2.33;;;19.00;99.90;;;;;;4942176;29;20484;-81
2023/07/02 02:31:38;;;;;;;1.80;1.70;;;18.80;99.90;;;;;;4948008;29;20453;-85
2023/07/02 02:34:05;;;;;;;4.63;2.27;;;18.90;99.90;;;;;;4960871;29;20447;-82
2023/07/02 02:36:32;;;;;;;4.70;2.37;;;18.80;99.90;;;;;;4950499;29;20471;-84
2023/07/02 02:38:59;;;;;;;4.77;2.17;;;18.90;99.90;;;;;;4946939;29;20493;-85
2023/07/02 02:41:27;;;;;;;3.40;2.17;;;18.70;99.90;;;;;;4959061;29;20453;-86
2023/07/02 02:43:54;;;;;;;2.30;2.10;;;18.70;99.90;;;;;;4954312;28;20514;-84
2023/07/02 02:46:24;;;;;;;3.27;1.97;;;18.70;99.90;;;;;;4948223;28;20417;-89
2023/07/02 02:48:51;;;;;;;3.30;2.30;;;18.70;99.90;;;;;;4957958;29;20489;-84
2023/07/02 02:51:18;;;;;;;2.10;2.00;;;18.60;99.90;;;;;;4950026;28;20526;-86
2023/07/02 02:53:46;;;;;;;2.10;2.00;;;18.70;99.90;;;;;;4941677;29;20504;-86
2023/07/02 02:56:13;;;;;;;3.00;1.90;;;19.00;99.90;;;;;;4943053;29;20754;-89
2023/07/02 02:58:40;;;;;;;1.80;1.70;;;18.90;99.90;;;;;;4941734;28;20426;-83
2023/07/02 03:01:10;;;;;;;2.17;2.07;;;18.90;99.90;;;;;;4952648;29;20658;-84
2023/07/02 03:03:50;;;;;;;2.03;1.93;;;18.90;99.90;;;;;;4937917;28;20482;-85
2023/07/02 03:06:19;;;;;;;8.17;2.13;;;18.90;99.90;;;;;;4951185;29;20408;-83
2023/07/02 03:08:47;;;;;;;1.90;1.80;;;19.00;99.90;;;;;;4956448;28;20514;-84
2023/07/02 03:11:14;;;;;;;1.93;1.83;;;18.50;99.90;;;;;;4952403;29;20447;-85
2023/07/02 03:13:41;;;;;;;2.50;2.30;;;18.70;99.90;;;;;;4949358;29;20466;-83
2023/07/02 03:16:08;;;;;;;2.13;2.03;;;19.20;99.90;;;;;;4965719;28;20476;-84
2023/07/02 03:18:36;;;;;;;4.30;1.93;;;18.80;99.90;;;;;;4971014;28;20449;-84
2023/07/02 03:21:06;;;;;;;2.07;1.90;;;19.20;99.90;;;;;;4957289;28;20763;-87
2023/07/02 03:23:32;;;;;;;1.83;1.73;;;19.20;99.90;;;;;;4931715;29;20470;-87
2023/07/02 03:26:00;;;;;;;2.07;1.97;;;19.20;99.90;;;;;;4938536;29;20522;-85
2023/07/02 03:28:28;;;;;;;2.00;1.90;;;19.50;99.90;;;;;;4946721;29;20513;-85
2023/07/02 03:30:56;;;;;;;4.37;2.43;;;19.40;99.90;;;;;;4940587;29;20514;-82
2023/07/02 03:33:24;;;;;;;2.10;1.93;;;19.30;99.90;;;;;;4951521;29;20445;-84
2023/07/02 03:35:51;;;;;;;1.80;1.70;;;19.20;99.90;;;;;;4948800;29;20496;-81
2023/07/02 03:38:19;;;;;;;2.00;1.90;;;19.30;99.90;;;;;;4957095;29;20441;-81
2023/07/02 03:40:46;;;;;;;2.77;2.50;;;19.40;99.90;;;;;;4945595;28;20450;-82
2023/07/02 03:43:13;;;;;;;2.20;2.00;;;19.50;99.90;;;;;;4952641;29;20453;-82
2023/07/02 03:45:40;;;;;;;3.23;2.50;;;19.60;99.90;;;;;;4951651;29;20478;-83
2023/07/02 03:48:07;;;;;;;2.97;2.77;;;19.70;99.90;;;;;;4945622;29;20474;-82
2023/07/02 03:50:34;;;;;;;2.30;2.20;;;19.70;99.90;;;;;;4957822;28;20644;-81
2023/07/02 03:53:01;;;;;;;3.67;2.67;;;19.80;99.90;;;;;;4951208;29;20444;-84
2023/07/02 03:55:28;;;;;;;3.97;2.60;;;19.50;99.90;;;;;;4939965;28;20513;-86
2023/07/02 03:57:55;;;;;;;1.93;1.83;;;19.70;99.90;;;;;;4932310;29;20425;-83
2023/07/02 04:00:22;;;;;;;2.50;2.30;;;19.60;99.90;;;;;;4953305;29;20987;-83
2023/07/02 04:02:49;;;;;;;2.80;2.60;;;19.70;99.90;;;;;;4955932;29;20457;-84
2023/07/02 04:05:16;;;;;;;2.63;2.43;;;19.50;99.90;;;;;;4943162;28;20426;-83
2023/07/02 04:07:44;;;;;;;5.13;2.20;;;20.00;99.90;;;;;;4955663;29;20533;-82
2023/07/02 04:10:10;;;;;;;2.40;2.30;;;19.70;99.90;;;;;;4945120;29;20441;-85
2023/07/02 04:12:37;;;;;;;2.00;1.90;;;19.50;99.90;;;;;;4941647;29;20466;-82
2023/07/02 04:15:05;;;;;;;2.40;2.20;;;19.60;99.90;;;;;;4953127;29;20425;-82
2023/07/02 04:17:32;;;;;;;3.23;2.33;;;19.70;99.90;;;;;;4959463;28;20473;-85
2023/07/02 04:20:01;;;;;;;4.23;2.47;;;20.00;99.90;;;;;;4943397;29;20797;-84
2023/07/02 04:22:28;;;;;;;3.10;2.60;;;19.80;99.90;;;;;;4946881;29;20528;-86
2023/07/02 04:24:58;;;;;;;4.70;2.77;;;19.90;99.90;;;;;;4944770;29;20416;-81
2023/07/02 04:27:44;;;;;;;2.60;2.40;;;20.00;99.90;;;;;;4943600;29;20513;-85
2023/07/02 04:30:17;;;;;;;3.10;2.53;;;20.00;99.90;;;;;;4951586;29;21060;-83
2023/07/02 04:32:44;;;;;;;2.87;2.67;;;20.00;99.90;;;;;;4955928;29;20416;-81
2023/07/02 04:35:11;;;;;;;2.90;2.70;;;20.10;99.90;;;;;;4952458;29;20453;-82
2023/07/02 04:37:38;;;;;;;4.07;2.90;;;20.20;99.90;;;;;;4950682;28;20481;-85
2023/07/02 04:40:09;;;;;;;2.57;2.37;;;20.10;99.90;;;;;;4954758;29;20452;-82
2023/07/02 04:42:38;;;;;;;4.07;2.70;;;20.20;99.90;;;;;;4963505;29;20498;-80
2023/07/02 04:45:06;;;;;;;2.73;2.53;;;20.20;99.90;;;;;;4953944;28;20457;-82
2023/07/02 04:47:37;;;;;;;6.13;2.60;;;20.50;99.90;;;;;;4943260;29;20446;-85
2023/07/02 04:50:05;;;;;;;3.03;2.73;;;20.60;99.90;;;;;;4955249;29;20461;-81
2023/07/02 04:52:32;;;;;;;5.53;2.30;;;20.60;99.90;;;;;;4935401;29;20450;-81
2023/07/02 04:54:59;;;;;;;3.23;3.03;;;20.80;99.90;;;;;;4950552;29;20634;-82
2023/07/02 04:57:28;;;;;;;3.60;2.90;;;20.80;99.90;;;;;;4953758;29;20447;-81
2023/07/02 04:59:55;;;;;;;3.00;2.80;;;20.90;99.90;;;;;;4957836;29;20441;-86
2023/07/02 05:02:22;;;;;;;2.57;2.37;;;20.80;99.90;;;;;;4954115;29;20453;-82
2023/07/02 05:04:50;;;;;;;2.93;2.70;;;20.80;99.90;;;;;;4958382;29;20476;-85
2023/07/02 05:07:18;;;;;;;2.70;2.50;;;20.90;99.90;;;;;;4960082;28;20645;-84
2023/07/02 05:09:44;;;;;;;4.70;2.87;;;20.90;99.90;;;;;;4956016;28;20519;-81
2023/07/02 05:12:12;;;;;;;3.20;2.90;;;21.40;99.90;;;;;;4944661;29;20643;-80
2023/07/02 05:14:38;;;;;;;3.10;2.90;;;21.40;99.90;;;;;;4955118;29;20474;-83
2023/07/02 05:17:06;;;;;;;2.80;2.60;;;21.60;99.90;;;;;;4951136;29;20762;-87
2023/07/02 05:19:35;;;;;;;3.30;2.83;;;21.20;99.90;;;;;;4944192;29;20457;-82
2023/07/02 05:22:02;;;;;;;2.90;2.50;;;21.00;99.90;;;;;;4959788;29;20971;-81
2023/07/02 05:24:30;;;;;;;4.80;3.00;;;21.00;99.90;;;;;;4952159;28;20894;-84
2023/07/02 05:26:57;;;;;;;3.40;3.10;;;20.60;99.90;;;;;;4944824;28;20413;-85
2023/07/02 05:29:26;;;;;;;3.23;2.93;;;20.60;99.90;;;;;;4941117;29;20553;-81
2023/07/02 05:31:55;;;;;;;2.97;2.77;;;20.40;99.90;;;;;;4950493;28;20491;-82
2023/07/02 05:34:22;;;;;;;8.23;3.33;;;20.40;99.90;;;;;;4944457;29;20450;-86
2023/07/02 05:36:52;;;;;;;3.40;3.07;;;20.40;99.90;;;;;;4944277;29;20521;-84
2023/07/02 05:39:21;;;;;;;3.80;3.40;;;20.30;99.90;;;;;;4947966;29;20726;-82
2023/07/02 05:41:51;;;;;;;3.30;3.00;;;20.50;99.90;;;;;;4954973;29;20420;-86
2023/07/02 05:44:18;;;;;;;3.00;2.40;;;20.60;99.90;;;;;;4960460;28;20513;-85
2023/07/02 05:46:45;;;;;;;2.90;2.70;;;20.70;99.90;;;;;;4955906;29;20788;-86
2023/07/02 05:49:12;;;;;;;4.23;3.10;;;20.50;99.90;;;;;;4962723;29;20485;-82
2023/07/02 05:51:40;;;;;;;2.20;2.10;;;20.60;99.90;;;;;;4946824;29;20459;-81
2023/07/02 05:54:07;;;;;;;2.80;2.60;;;20.70;99.90;;;;;;4962250;28;20446;-80
2023/07/02 05:56:35;;;;;;;2.70;2.60;;;21.20;99.90;;;;;;4951060;29;20442;-83
2023/07/02 05:59:02;;;;;;;2.73;2.53;;;21.10;99.90;;;;;;4950098;29;20600;-83
2023/07/02 06:01:29;;;;;;;3.10;2.53;;;21.40;99.90;;;;;;4951604;28;20482;-84
2023/07/02 06:03:56;;;;;;;2.90;2.60;;;21.80;99.90;;;;;;4951662;29;20428;-84
2023/07/02 06:06:24;;;;;;;3.50;3.20;;;21.80;99.90;;;;;;4945024;29;20446;-81
2023/07/02 06:08:51;;;;;;;3.00;2.70;;;21.70;99.90;;;;;;4949418;29;20502;-82
2023/07/02 06:11:20;;;;;;;2.87;2.67;;;21.80;99.90;;;;;;4950099;28;20449;-83
2023/07/02 06:13:49;;;;;;;3.23;2.90;;;22.10;99.90;;;;;;4946573;29;20473;-86
2023/07/02 06:16:16;;;;;;;3.17;2.80;;;22.30;99.90;;;;;;4945324;29;20455;-83
2023/07/02 06:18:46;;;;;;;4.17;3.03;;;22.30;99.90;;;;;;4945375;28;20549;-80
2023/07/02 06:21:12;;;;;;;3.60;3.30;;;22.30;99.90;;;;;;4939374;29;20425;-82
2023/07/02 06:23:41;;;;;;;3.90;2.53;;;22.10;99.90;;;;;;4949294;28;20454;-81
2023/07/02 06:26:09;;;;;;;2.90;2.70;;;21.90;99.90;;;;;;4958392;29;20453;-80
2023/07/02 06:28:38;;;;;;;5.60;3.40;;;21.60;99.90;;;;;;4944572;29;20457;-80
2023/07/02 06:31:04;;;;;;;4.47;3.27;;;21.50;99.90;;;;;;4942947;29;20458;-83
2023/07/02 06:33:32;;;;;;;3.50;3.30;;;21.40;99.90;;;;;;4945789;29;20477;-86
2023/07/02 06:35:59;;;;;;;3.53;3.20;;;21.10;99.90;;;;;;4954695;29;20453;-85
2023/07/02 06:38:26;;;;;;;3.00;2.80;;;20.90;99.90;;;;;;4954321;29;20436;-87
2023/07/02 06:40:55;;;;;;;3.80;3.50;;;20.80;99.90;;;;;;4951681;29;20684;-88
2023/07/02 06:43:22;;;;;;;4.00;2.90;;;20.60;99.90;;;;;;4944793;28;20508;-79
2023/07/02 06:45:50;;;;;;;3.97;3.67;;;20.60;99.90;;;;;;4943137;29;20450;-83
2023/07/02 06:48:21;;;;;;;4.07;3.27;;;20.40;99.90;;;;;;4950025;29;20473;-82
2023/07/02 06:50:48;;;;;;;4.47;4.10;;;19.80;99.90;;;;;;4940923;28;20493;-82
2023/07/02 06:53:15;;;;;;;4.43;3.73;;;19.50;99.90;;;;;;4938529;29;20505;-87
2023/07/02 06:55:43;;;;;;;3.93;3.60;;;19.30;99.90;;;;;;4950088;29;20425;-82
2023/07/02 06:58:14;;;;;;;4.40;4.10;;;19.10;99.90;;;;;;4943229;29;20465;-85
2023/07/02 07:00:43;;;;;;;4.07;3.87;;;19.30;99.90;;;;;;4942279;29;20510;-85
2023/07/02 07:03:10;;;;;;;3.93;3.63;;;19.50;99.90;;;;;;4948192;29;20579;-82
2023/07/02 07:05:37;;;;;;;4.47;4.17;;;19.70;99.90;;;;;;4952386;28;20939;-83
2023/07/02 07:08:04;;;;;;;5.67;5.27;;;20.00;99.90;;;;;;4942511;29;20424;-81
2023/07/02 07:10:36;;;;;;;8.43;7.73;;;20.40;99.90;;;;;;4943634;29;20528;-81
2023/07/02 07:13:05;;;;;;;6.10;5.60;;;20.70;99.90;;;;;;4937560;29;20525;-83
2023/07/02 07:15:36;;;;;;;4.03;3.73;;;21.20;99.90;;;;;;4938295;28;20441;-81
2023/07/02 07:18:04;;;;;;;3.47;3.20;;;21.50;99.90;;;;;;4940581;29;20446;-83
2023/07/02 07:20:34;;;;;;;4.60;4.10;;;21.60;99.90;;;;;;4950503;29;20489;-82
2023/07/02 07:23:02;;;;;;;3.73;3.43;;;21.90;99.90;;;;;;4944294;29;20409;-80
2023/07/02 07:25:31;;;;;;;6.63;3.20;;;22.20;99.90;;;;;;4955182;28;20450;-83
2023/07/02 07:27:59;;;;;;;3.80;3.50;;;22.60;99.90;;;;;;4937618;29;20450;-80
2023/07/02 07:30:26;;;;;;;3.80;3.60;;;23.20;99.90;;;;;;4943038;29;20649;-80
2023/07/02 07:32:53;;;;;;;3.57;3.37;;;24.10;99.90;;;;;;4937834;29;20434;-82
2023/07/02 07:35:21;;;;;;;4.20;3.90;;;24.40;99.90;;;;;;4942602;28;20453;-79
2023/07/02 07:37:49;;;;;;;3.20;3.00;;;24.50;99.90;;;;;;4943029;29;20481;-85
2023/07/02 07:40:16;;;;;;;5.00;3.87;;;24.60;99.90;;;;;;4942832;29;20444;-79
2023/07/02 07:42:46;;;;;;;6.47;5.87;;;24.40;99.90;;;;;;4944261;29;20440;-80
2023/07/02 07:45:14;;;;;;;3.50;3.30;;;24.10;99.90;;;;;;4942759;29;20425;-81
2023/07/02 07:47:41;;;;;;;5.00;4.60;;;23.80;99.90;;;;;;4948106;29;20443;-81
2023/07/02 07:50:12;;;;;;;3.27;3.07;;;23.90;99.90;;;;;;4953979;29;20559;-81
2023/07/02 07:52:40;;;;;;;3.70;3.50;;;24.00;99.90;;;;;;4954980;29;20449;-82
2023/07/02 07:55:07;;;;;;;6.70;5.30;;;24.20;99.90;;;;;;4970960;29;20450;-84
2023/07/02 07:57:37;;;;;;;5.00;3.13;;;25.10;99.90;;;;;;4954238;29;20423;-85
2023/07/02 08:00:11;;;;;;;3.50;3.30;;;25.30;99.90;;;;;;4955425;29;20513;-87
2023/07/02 08:02:38;;;;;;;3.90;3.57;;;24.70;99.90;;;;;;4949470;29;20429;-82
2023/07/02 08:05:07;;;;;;;5.13;4.73;;;24.20;99.90;;;;;;4950914;29;20636;-82
2023/07/02 08:07:34;;;;;;;4.03;3.60;;;23.40;99.90;;;;;;4943870;29;20437;-86
2023/07/02 08:10:02;;;;;;;4.10;3.77;;;22.90;99.90;;;;;;4948420;29;20484;-83
2023/07/02 08:12:31;;;;;;;4.00;3.60;;;22.40;99.90;;;;;;4946843;29;20784;-82
2023/07/02 08:15:00;;;;;;;3.57;3.27;;;22.10;99.90;;;;;;4945423;29;20443;-84
2023/07/02 08:17:30;;;;;;;3.67;3.37;;;21.80;99.90;;;;;;4950407;28;20438;-86
2023/07/02 08:19:58;;;;;;;3.47;3.27;;;21.80;99.90;;;;;;4933542;29;20525;-88
2023/07/02 08:22:25;;;;;;;4.60;3.87;;;22.30;99.90;;;;;;4949737;29;20515;-83
2023/07/02 08:24:55;;;;;;;3.50;3.30;;;22.60;99.90;;;;;;4945119;29;20456;-83
2023/07/02 08:27:23;;;;;;;4.60;3.80;;;23.00;99.90;;;;;;4947456;29;20447;-85
2023/07/02 08:29:54;;;;;;;3.60;3.40;;;23.40;99.90;;;;;;4949823;29;20448;-87
2023/07/02 08:32:25;;;;;;;3.40;3.10;;;23.70;99.90;;;;;;4956335;29;20408;-89
2023/07/02 08:34:52;;;;;;;3.47;3.17;;;23.90;99.90;;;;;;4950257;28;20428;-83
2023/07/02 08:37:21;;;;;;;3.80;3.30;;;24.10;99.90;;;;;;4947734;29;20451;-85
2023/07/02 08:39:52;;;;;;;5.07;3.70;;;23.30;99.90;;;;;;4954560;29;20479;-83
2023/07/02 08:42:22;;;;;;;3.63;3.33;;;22.80;99.90;;;;;;4953232;29;20478;-82
2023/07/02 08:44:54;;;;;;;3.60;3.40;;;22.40;99.90;;;;;;4961012;28;20501;-82
2023/07/02 08:47:24;;;;;;;3.80;3.60;;;21.70;99.90;;;;;;4948793;29;20420;-84
2023/07/02 08:50:07;;;;;;;4.00;3.80;;;21.10;99.90;;;;;;4947597;28;20456;-85
2023/07/02 08:52:35;;;;;;;4.37;3.80;;;20.80;99.90;;;;;;4948815;29;20420;-84
2023/07/02 08:55:02;;;;;;;4.23;3.93;;;20.70;99.90;;;;;;4957671;29;20615;-83
2023/07/02 08:57:32;;;;;;;4.37;4.10;;;20.90;99.90;;;;;;4947247;29;20521;-84
2023/07/02 09:00:00;;;;;;;3.67;3.47;;;21.00;99.90;;;;;;4948237;29;20449;-83
2023/07/02 09:02:33;;;;;;;4.40;4.10;;;21.20;99.90;;;;;;4947403;29;20427;-86
2023/07/02 09:05:05;;;;;;;3.77;3.57;;;21.40;99.90;;;;;;4938143;28;20446;-82
2023/07/02 09:07:42;;;;;;;4.20;3.90;;;21.50;99.90;;;;;;4940509;29;20478;-84
2023/07/02 09:10:10;;;;;;;4.07;3.60;;;21.80;99.90;;;;;;4940622;29;20577;-83
2023/07/02 09:12:38;;;;;;;4.57;4.27;;;22.00;99.90;;;;;;4945159;29;20462;-83
2023/07/02 09:15:06;;;;;;;4.60;4.30;;;22.30;99.90;;;;;;4955411;29;20468;-83
2023/07/02 09:17:36;;;;;;;4.60;4.30;;;22.60;99.90;;;;;;4943847;29;21024;-85
2023/07/02 09:20:07;;;;;;;3.77;3.57;;;22.80;99.90;;;;;;4947095;29;20461;-83
2023/07/02 09:22:35;;;;;;;4.27;3.97;;;23.00;99.90;;;;;;4936936;29;20417;-83
2023/07/02 09:25:02;;;;;;;3.87;3.57;;;23.30;99.90;;;;;;4952552;29;20451;-83
2023/07/02 09:27:37;;;;;;;4.67;3.93;;;23.90;99.90;;;;;;4956281;29;20488;-83
2023/07/02 09:30:08;;;;;;;3.43;3.23;;;23.40;99.90;;;;;;4946066;29;20480;-84
2023/07/02 09:32:35;;;;;;;3.73;3.43;;;23.10;99.90;;;;;;4939847;29;20753;-82
2023/07/02 09:35:02;;;;;;;4.10;3.80;;;23.00;99.90;;;;;;4954542;28;20453;-84
2023/07/02 09:37:31;;;;;;;4.73;4.33;;;23.00;99.90;;;;;;4953195;29;20462;-88
2023/07/02 09:39:58;;;;;;;4.83;4.43;;;23.00;99.90;;;;;;4950507;29;20476;-84
2023/07/02 09:42:25;;;;;;;4.13;3.73;;;23.40;99.90;;;;;;4949959;29;20456;-83
2023/07/02 09:44:55;;;;;;;6.80;4.53;;;23.70;99.90;;;;;;4945223;29;20625;-84
2023/07/02 09:47:24;;;;;;;7.90;4.03;;;23.80;99.90;;;;;;4945667;29;20420;-85
2023/07/02 09:50:00;;;;;;;3.67;3.37;;;23.80;99.90;;;;;;4950914;28;20494;-85
2023/07/02 09:52:28;;;;;;;3.97;3.67;;;24.00;99.90;;;;;;4951614;29;20412;-84
2023/07/02 09:54:55;;;;;;;4.70;4.03;;;24.50;99.90;;;;;;4951502;28;20425;-87
2023/07/02 09:57:22;;;;;;;4.27;3.97;;;24.80;99.90;;;;;;4948500;29;20451;-85
2023/07/02 09:59:50;;;;;;;7.30;4.30;;;25.00;99.90;;;;;;4953919;29;20444;-84
2023/07/02 10:02:19;;;;;;;3.80;3.50;;;25.10;99.90;;;;;;4961450;29;20517;-86
2023/07/02 10:04:54;;;;;;;4.17;3.77;;;25.20;99.90;;;;;;4958964;28;20484;-86
2023/07/02 10:07:33;;;;;;;3.97;3.50;;;24.80;99.90;;;;;;4963352;28;20456;-83
2023/07/02 10:10:00;;;;;;;3.63;3.40;;;24.90;99.90;;;;;;4962906;28;20464;-84
2023/07/02 10:12:30;;;;;;;3.90;3.60;;;24.60;99.90;;;;;;4960882;23;20466;-85
2023/07/02 10:15:00;;;;;;;3.40;3.20;;;24.30;99.90;;;;;;4932052;29;20426;-87
2023/07/02 10:17:32;;;;;;;3.20;3.00;;;24.10;99.90;;;;;;4930502;29;20431;-83
2023/07/02 10:20:11;;;;;;;3.63;3.43;;;23.80;99.90;;;;;;4929309;29;20444;-88
2023/07/02 10:22:53;;;;;;;7.40;3.83;;;23.50;99.90;;;;;;4924827;29;20472;-83
2023/07/02 10:25:33;;;;;;;3.63;3.33;;;23.60;99.90;;;;;;4918197;29;20463;-86
2023/07/02 10:28:22;;;;;;;6.37;3.60;;;24.10;99.90;;;;;;4920961;29;20466;-83
2023/07/02 10:30:49;;;;;;;3.67;3.30;;;24.40;99.90;;;;;;4914645;29;20482;-81
2023/07/02 10:33:20;;;;;;;3.63;3.23;;;25.00;99.90;;;;;;4927807;29;20421;-88
2023/07/02 10:35:50;;;;;;;4.07;3.77;;;25.40;99.90;;;;;;4928327;29;20413;-83
2023/07/02 10:38:22;;;;;;;3.87;3.50;;;25.70;99.90;;;;;;4926826;29;20637;-83
2023/07/02 10:41:00;;;;;;;3.80;3.47;;;25.90;99.90;;;;;;4933786;29;20480;-87
2023/07/02 10:43:32;;;;;;;3.40;3.10;;;26.00;99.90;;;;;;4933031;29;20440;-83
2023/07/02 10:46:00;;;;;;;3.30;3.10;;;26.00;99.90;;;;;;4929760;29;20441;-83
2023/07/02 10:48:30;;;;;;;3.20;3.00;;;26.00;99.90;;;;;;4934075;29;20424;-83
2023/07/02 10:50:57;;;;;;;3.73;3.53;;;26.30;99.90;;;;;;4922100;29;20536;-83
2023/07/02 10:53:26;;;;;;;3.07;2.97;;;26.80;99.90;;;;;;4933176;29;20484;-86
2023/07/02 10:55:57;;;;;;;3.60;3.30;;;26.80;99.90;;;;;;4926121;29;20418;-83
2023/07/02 10:58:25;;;;;;;3.60;3.30;;;26.90;99.90;;;;;;4936460;29;20412;-84
2023/07/02 11:00:54;;;;;;;3.20;3.00;;;26.80;99.90;;;;;;4924508;29;20434;-83
2023/07/02 11:03:26;;;;;;;2.63;2.43;;;26.80;99.90;;;;;;4935554;29;20457;-83
2023/07/02 11:05:53;;;;;;;3.23;3.03;;;26.40;99.90;;;;;;4933536;29;20466;-87
2023/07/02 11:08:25;;;;;;;3.23;3.03;;;26.20;99.90;;;;;;4929885;29;20452;-83
2023/07/02 11:11:04;;;;;;;3.40;3.10;;;25.70;99.90;;;;;;4934534;29;20485;-85
2023/07/02 11:13:32;;;;;;;3.40;3.10;;;25.40;99.90;;;;;;4940078;28;20512;-83
2023/07/02 11:15:58;;;;;;;3.37;3.17;;;25.30;99.90;;;;;;4930696;29;20766;-83
2023/07/02 11:18:31;;;;;;;6.23;5.33;;;24.90;99.90;;;;;;4936417;29;20450;-83
2023/07/02 11:21:11;;;;;;;4.20;3.90;;;24.40;99.90;;;;;;4931170;29;20774;-83
2023/07/02 11:23:38;;;;;;;3.87;3.67;;;24.60;99.90;;;;;;4922898;29;20420;-84
2023/07/02 11:26:06;;;;;;;4.20;3.90;;;24.60;99.90;;;;;;4927252;29;20410;-81
2023/07/02 11:28:34;;;;;;;3.00;2.80;;;24.80;99.90;;;;;;4929878;29;20633;-81
2023/07/02 11:31:05;;;;;;;3.67;3.20;;;24.80;99.90;;;;;;4933161;29;20460;-84
2023/07/02 11:33:41;;;;;;;3.20;3.00;;;24.70;99.90;;;;;;4926637;29;20455;-85
2023/07/02 11:36:26;;;;;;;3.20;3.00;;;24.70;99.90;;;;;;4918885;29;20499;-85
2023/07/02 11:38:56;;;;;;;3.23;3.00;;;24.70;99.90;;;;;;4912657;29;20452;-84
2023/07/02 11:41:23;;;;;;;4.50;4.10;;;24.80;99.90;;;;;;4929055;29;20500;-83
2023/07/02 11:43:51;;;;;;;3.40;3.03;;;24.70;99.90;;;;;;4919879;29;20421;-82
2023/07/02 11:46:18;;;;;;;2.87;2.70;;;25.00;99.90;;;;;;4924166;29;20520;-85
2023/07/02 11:48:46;;;;;;;3.60;3.30;;;25.30;99.90;;;;;;4920523;29;20520;-83
2023/07/02 11:51:14;;;;;;;3.80;3.60;;;26.00;99.90;;;;;;4923502;29;20492;-84
2023/07/02 11:53:41;;;;;;;5.60;3.60;;;26.50;99.90;;;;;;4920395;29;20421;-82
2023/07/02 11:56:09;;;;;;;3.63;3.43;;;26.50;99.90;;;;;;4925639;29;20749;-80
2023/07/02 11:58:36;;;;;;;3.80;3.50;;;26.70;99.90;;;;;;4920224;29;20424;-82
2023/07/02 12:01:03;;;;;;;3.60;3.10;;;26.80;99.90;;;;;;4917429;29;20442;-82
2023/07/02 12:03:30;;;;;;;3.20;3.00;;;26.70;99.90;;;;;;4919244;29;20437;-83
2023/07/02 12:05:57;;;;;;;6.53;3.17;;;26.60;99.90;;;;;;4924800;29;20470;-83
2023/07/02 12:08:25;;;;;;;3.30;2.83;;;26.60;99.90;;;;;;4934152;29;20429;-85
2023/07/02 12:10:52;;;;;;;3.20;2.90;;;26.60;99.90;;;;;;4928391;29;20793;-84
2023/07/02 12:13:22;;;;;;;3.27;3.07;;;26.30;99.90;;;;;;4928395;29;20493;-86
2023/07/02 12:15:51;;;;;;;3.80;3.60;;;26.20;99.90;;;;;;4929197;29;20517;-81
2023/07/02 12:18:18;;;;;;;3.70;3.40;;;26.40;99.90;;;;;;4922527;29;20430;-84
2023/07/02 12:20:45;;;;;;;5.43;3.30;;;26.40;99.90;;;;;;4926474;29;21073;-84
2023/07/02 12:23:14;;;;;;;3.73;3.37;;;26.50;99.90;;;;;;4925538;29;20508;-83
2023/07/02 12:25:42;;;;;;;6.40;3.50;;;26.50;99.90;;;;;;4927179;29;20454;-82
2023/07/02 12:28:11;;;;;;;3.17;2.97;;;26.30;99.90;;;;;;4939925;29;20417;-80
2023/07/02 12:30:39;;;;;;;3.30;3.10;;;26.10;99.90;;;;;;4946698;29;20453;-82
2023/07/02 12:33:10;;;;;;;3.90;3.53;;;26.00;99.90;;;;;;4943189;29;20480;-84
2023/07/02 12:35:37;;;;;;;3.73;3.43;;;26.00;99.90;;;;;;4916995;29;20425;-81
2023/07/02 12:38:04;;;;;;;3.80;3.50;;;26.00;99.90;;;;;;4931901;29;20417;-82
2023/07/02 12:40:33;;;;;;;3.50;3.23;;;26.00;99.90;;;;;;4943824;29;20521;-83
2023/07/02 12:43:04;;;;;;;3.97;3.70;;;25.90;99.90;;;;;;4927823;29;20422;-83
2023/07/02 12:45:33;;;;;;;3.60;3.40;;;25.80;99.90;;;;;;4938785;29;20754;-84
2023/07/02 12:48:04;;;;;;;4.20;3.90;;;25.50;99.90;;;;;;4936669;29;20414;-81
2023/07/02 12:50:30;;;;;;;5.10;3.53;;;25.30;99.90;;;;;;4935129;29;20824;-83
2023/07/02 12:52:58;;;;;;;3.83;3.57;;;25.30;99.90;;;;;;4924506;29;20426;-84